VAAH

Sardar Vallabhbhai Patel International Airport

Ahmedabad, India
TAF VAAH 182300Z 1900/2006 02003KT 4000 FU HZ NSC BECMG 1901/1903 07006KT 2000 HZ BECMG 1904/1906 05007KT 5000 FU HZ BECMG 1912/1914 07006KT 4000 HZ BECMG 2001/2003 05005KT 2000 HZ BECMG 2004/2006 07008KT 5000 FUHZ
Issued Valid From Valid To
Dec-18 @ 23:00 UTC
(50 minutes ago)
Dec-19 @ 00:00 UTC
(in 10 minutes)
Dec-20 @ 06:00 UTC
(-1 days ago)
Dec-19 @ 00:00 to Dec-19 @ 01:00
TAF VAAH 182300Z 1900/2006 02003KT 4000 FU HZ NSC
Wind Visibility Clouds Conditions
20° at 3 knots 4,007 meters
  • No significant clouds
  • Smoke
  • Haze
Becoming Dec-19 @ 01:00 to Dec-19 @ 04:00
BECMG 1901/1903 07006KT 2000 HZ
Wind Visibility Clouds Conditions
70° at 6 knots 1,996 meters
  • No significant clouds
  • Haze
Becoming Dec-19 @ 04:00 to Dec-19 @ 12:00
BECMG 1904/1906 05007KT 5000 FU HZ
Wind Visibility Clouds Conditions
50° at 7 knots 5,005 meters
  • No significant clouds
  • Smoke
  • Haze
Becoming Dec-19 @ 12:00 to Dec-20 @ 01:00
BECMG 1912/1914 07006KT 4000 HZ
Wind Visibility Clouds Conditions
70° at 6 knots 4,007 meters
  • No significant clouds
  • Haze
Becoming Dec-20 @ 01:00 to Dec-20 @ 04:00
BECMG 2001/2003 05005KT 2000 HZ
Wind Visibility Clouds Conditions
50° at 5 knots 1,996 meters
  • No significant clouds
  • Haze
Becoming Dec-20 @ 04:00 to Dec-20 @ 06:00
BECMG 2004/2006 07008KT 5000 FUHZ
Wind Visibility Clouds Conditions
70° at 8 knots 5,005 meters
  • No significant clouds
  • Smoke
  • Haze
TAF VAAH 182300Z 1900/2006 02003KT 4000 FU HZ NSC BECMG 1901/1903 07006KT 2000 HZ BECMG 1904/1906 05007KT 5000 FU HZ BECMG 1912/1914 07006KT 4000 HZ BECMG 2001/2003 05005KT 2000 HZ BECMG 2004/2006 07008KT 5000 FUHZ
Issued Dec-18 @ 23:00 UTC
(50 minutes ago)
Valid From Dec-19 @ 00:00 UTC
(in 10 minutes)
Valid To Dec-20 @ 06:00 UTC
(-1 days ago)
Dec-19 @ 00:00 - Dec-19 @ 01:00
Wind Visibility
20° at 3 knots 4,007 meters
Clouds
  • No significant clouds
Conditions
  • Smoke
  • Haze
Becoming Dec-19 @ 01:00 - Dec-19 @ 04:00
Wind Visibility
70° at 6 knots 1,996 meters
Clouds
  • No significant clouds
Conditions
  • Haze
Becoming Dec-19 @ 04:00 - Dec-19 @ 12:00
Wind Visibility
50° at 7 knots 5,005 meters
Clouds
  • No significant clouds
Conditions
  • Smoke
  • Haze
Becoming Dec-19 @ 12:00 - Dec-20 @ 01:00
Wind Visibility
70° at 6 knots 4,007 meters
Clouds
  • No significant clouds
Conditions
  • Haze
Becoming Dec-20 @ 01:00 - Dec-20 @ 04:00
Wind Visibility
50° at 5 knots 1,996 meters
Clouds
  • No significant clouds
Conditions
  • Haze
Becoming Dec-20 @ 04:00 - Dec-20 @ 06:00
Wind Visibility
70° at 8 knots 5,005 meters
Clouds
  • No significant clouds
Conditions
  • Smoke
  • Haze